createdAt,value
2018-12-06T00:00:06.611Z,14.27
2018-12-06T00:02:34.915Z,14.93
2018-12-06T00:05:03.241Z,14.87
2018-12-06T00:07:32.230Z,14.23
2018-12-06T00:10:00.479Z,13.80
2018-12-06T00:12:28.774Z,15.03
2018-12-06T00:15:08.226Z,16.43
2018-12-06T00:17:36.529Z,15.80
2018-12-06T00:20:05.189Z,16.30
2018-12-06T00:22:34.454Z,17.97
2018-12-06T00:25:02.717Z,16.43
2018-12-06T00:27:31.552Z,16.67
2018-12-06T00:30:11.600Z,17.87
2018-12-06T00:32:40.818Z,18.17
2018-12-06T00:35:09.343Z,17.00
2018-12-06T00:37:37.618Z,18.50
2018-12-06T00:40:05.974Z,18.17
2018-12-06T00:42:34.346Z,17.60
2018-12-06T00:45:02.606Z,18.07
2018-12-06T00:47:31.833Z,17.50
2018-12-06T00:50:00.090Z,18.13
2018-12-06T00:52:28.409Z,17.77
2018-12-06T00:54:56.741Z,17.37
2018-12-06T00:57:25.025Z,21.17
2018-12-06T00:59:53.273Z,16.60
2018-12-06T01:02:21.547Z,17.37
2018-12-06T01:04:50.475Z,16.97
2018-12-06T01:07:18.732Z,17.63
2018-12-06T01:09:47.794Z,18.70
2018-12-06T01:12:16.182Z,18.70
2018-12-06T01:14:44.978Z,17.73
2018-12-06T01:17:14.191Z,17.00
2018-12-06T01:19:43.102Z,18.73
2018-12-06T01:22:11.411Z,18.23
2018-12-06T01:24:39.725Z,18.10
2018-12-06T01:27:07.942Z,21.00
2018-12-06T01:29:36.206Z,21.97
2018-12-06T01:32:05.503Z,21.73
2018-12-06T01:34:33.778Z,23.53
2018-12-06T01:37:02.047Z,20.37
2018-12-06T01:39:30.305Z,17.60
2018-12-06T01:41:58.614Z,18.37
2018-12-06T01:44:27.702Z,17.70
2018-12-06T01:46:55.990Z,19.03
2018-12-06T01:49:24.287Z,18.83
2018-12-06T01:51:52.512Z,17.80
2018-12-06T01:54:20.791Z,19.37
2018-12-06T01:56:49.630Z,20.27
2018-12-06T01:59:18.477Z,19.50
2018-12-06T02:01:46.810Z,19.50
2018-12-06T02:04:15.173Z,18.17
2018-12-06T02:06:43.465Z,19.57
2018-12-06T02:09:12.434Z,19.27
2018-12-06T02:11:40.734Z,17.57
2018-12-06T02:14:09.029Z,19.77
2018-12-06T02:16:37.332Z,18.50
2018-12-06T02:19:05.652Z,18.77
2018-12-06T02:21:33.866Z,19.30
2018-12-06T02:24:02.128Z,19.03
2018-12-06T02:26:30.405Z,21.70
2018-12-06T02:28:58.675Z,17.70
2018-12-06T02:31:26.959Z,18.57
2018-12-06T02:33:55.313Z,18.53
2018-12-06T02:36:24.116Z,16.33
2018-12-06T02:38:53.000Z,19.60
2018-12-06T02:41:21.240Z,20.27
2018-12-06T02:43:49.492Z,17.13
2018-12-06T02:46:18.372Z,18.80
2018-12-06T02:48:46.617Z,22.37
2018-12-06T02:51:15.577Z,17.57
2018-12-06T02:53:43.879Z,19.97
2018-12-06T02:56:12.105Z,18.03
2018-12-06T02:58:40.420Z,17.37
2018-12-06T03:01:08.735Z,19.30
2018-12-06T03:03:37.129Z,18.67
2018-12-06T03:06:05.420Z,19.20
2018-12-06T03:08:33.749Z,18.97
2018-12-06T03:11:02.138Z,21.93
2018-12-06T03:13:31.479Z,23.53
2018-12-06T03:15:59.710Z,24.33
2018-12-06T03:18:29.031Z,19.93
2018-12-06T03:20:57.375Z,19.57
2018-12-06T03:23:26.198Z,21.57
2018-12-06T03:25:54.556Z,21.60
2018-12-06T03:28:22.793Z,18.47
2018-12-06T03:30:51.015Z,20.47
2018-12-06T03:33:19.373Z,18.30
2018-12-06T03:35:47.695Z,19.57
2018-12-06T03:38:22.375Z,19.57
2018-12-06T03:40:50.706Z,18.87
2018-12-06T03:43:18.994Z,19.83
2018-12-06T03:45:48.283Z,22.80
2018-12-06T03:48:16.506Z,21.00
2018-12-06T03:50:44.787Z,20.17
2018-12-06T03:53:13.108Z,20.90
2018-12-06T03:55:41.350Z,20.83
2018-12-06T03:58:09.626Z,21.40
2018-12-06T04:00:37.842Z,24.50
2018-12-06T04:03:06.267Z,21.90
2018-12-06T04:05:34.610Z,21.80
2018-12-06T04:08:02.883Z,20.03
2018-12-06T04:10:32.061Z,21.40
2018-12-06T04:13:01.143Z,19.00
2018-12-06T04:15:29.457Z,21.10
2018-12-06T04:17:58.233Z,22.87
2018-12-06T04:20:26.549Z,22.00
2018-12-06T04:22:54.774Z,26.13
2018-12-06T04:25:23.048Z,20.27
2018-12-06T04:27:52.155Z,21.83
2018-12-06T04:30:20.390Z,19.43
2018-12-06T04:32:48.679Z,25.73
2018-12-06T04:35:17.574Z,24.17
2018-12-06T04:37:46.915Z,23.27
2018-12-06T04:40:15.210Z,21.53
2018-12-06T04:42:43.418Z,20.37
2018-12-06T04:45:11.759Z,21.60
2018-12-06T04:47:40.262Z,25.90
2018-12-06T04:50:08.932Z,22.23
2018-12-06T04:52:37.621Z,23.67
2018-12-06T04:55:05.846Z,22.57
2018-12-06T04:57:34.127Z,23.40
2018-12-06T05:00:03.188Z,22.67
2018-12-06T05:02:32.977Z,26.03
2018-12-06T05:05:01.251Z,24.37
2018-12-06T05:07:29.551Z,23.60
2018-12-06T05:09:57.774Z,20.90
2018-12-06T05:12:26.122Z,21.07
2018-12-06T05:14:54.378Z,26.03
2018-12-06T05:17:23.327Z,21.47
2018-12-06T05:19:51.630Z,22.53
2018-12-06T05:22:19.946Z,22.90
2018-12-06T05:24:48.191Z,22.60
2018-12-06T05:27:16.460Z,23.87
2018-12-06T05:29:44.816Z,22.73
2018-12-06T05:32:13.148Z,22.10
2018-12-06T05:34:41.422Z,20.93
2018-12-06T05:37:09.780Z,23.33
2018-12-06T05:39:38.102Z,26.37
2018-12-06T05:42:06.380Z,23.13
2018-12-06T05:44:35.005Z,27.80
2018-12-06T05:47:03.285Z,24.63
2018-12-06T05:49:31.638Z,22.47
2018-12-06T05:51:59.974Z,26.13
2018-12-06T05:54:28.196Z,28.63
2018-12-06T05:56:56.467Z,25.53
2018-12-06T05:59:24.761Z,27.10
2018-12-06T06:01:53.098Z,28.70
2018-12-06T06:04:21.358Z,26.97
2018-12-06T06:06:49.688Z,26.90
2018-12-06T06:09:17.928Z,27.53
2018-12-06T06:11:46.342Z,27.53
2018-12-06T06:14:14.673Z,26.70
2018-12-06T06:16:42.957Z,31.93
2018-12-06T06:19:11.283Z,29.93
2018-12-06T06:21:39.573Z,24.60
2018-12-06T06:24:07.963Z,31.90
2018-12-06T06:26:36.273Z,49.33
2018-12-06T06:29:04.654Z,39.47
2018-12-06T06:31:33.059Z,30.37
2018-12-06T06:34:01.326Z,45.93
2018-12-06T06:36:29.657Z,34.07
2018-12-06T06:38:58.201Z,38.90
2018-12-06T06:41:26.493Z,30.20
2018-12-06T06:43:54.822Z,30.50
2018-12-06T06:46:23.057Z,32.03
2018-12-06T06:48:51.419Z,27.40
2018-12-06T06:51:19.684Z,24.63
2018-12-06T06:53:48.072Z,32.83
2018-12-06T06:56:16.372Z,27.60
2018-12-06T06:58:44.637Z,29.77
2018-12-06T07:01:13.942Z,30.57
2018-12-06T07:03:42.318Z,27.13
2018-12-06T07:06:10.699Z,26.83
2018-12-06T07:08:39.046Z,26.50
2018-12-06T07:11:07.996Z,26.17
2018-12-06T07:13:36.300Z,28.97
2018-12-06T07:16:04.938Z,33.03
2018-12-06T07:18:33.849Z,26.20
2018-12-06T07:21:02.090Z,33.17
2018-12-06T07:23:30.353Z,28.20
2018-12-06T07:25:58.977Z,28.73
2018-12-06T07:28:27.272Z,26.27
2018-12-06T07:30:55.536Z,35.60
2018-12-06T07:33:23.865Z,28.80
2018-12-06T07:35:52.141Z,30.47
2018-12-06T07:38:20.486Z,26.00
2018-12-06T07:40:48.997Z,29.73
2018-12-06T07:43:18.813Z,27.27
2018-12-06T07:45:47.157Z,30.57
2018-12-06T07:48:15.429Z,34.77
2018-12-06T07:50:44.243Z,34.57
2018-12-06T07:53:12.792Z,38.87
2018-12-06T07:55:41.396Z,39.17
2018-12-06T07:58:09.818Z,39.70
2018-12-06T08:00:38.613Z,40.80
2018-12-06T08:03:06.889Z,39.30
2018-12-06T08:05:35.174Z,38.57
2018-12-06T08:08:05.369Z,36.17
2018-12-06T08:10:34.512Z,36.67
2018-12-06T08:13:02.895Z,38.67
2018-12-06T08:15:32.241Z,38.07
2018-12-06T08:18:00.535Z,38.47
2018-12-06T08:20:28.821Z,39.13
2018-12-06T08:22:59.229Z,35.77
2018-12-06T08:25:27.533Z,47.53
2018-12-06T08:27:56.715Z,35.10
2018-12-06T08:30:25.133Z,32.83
2018-12-06T08:32:54.018Z,31.50
2018-12-06T08:35:22.299Z,33.27
2018-12-06T08:37:50.589Z,34.70
2018-12-06T08:40:18.922Z,34.03
2018-12-06T08:42:48.259Z,32.13
2018-12-06T08:45:17.224Z,26.80
2018-12-06T08:47:46.310Z,28.20
2018-12-06T08:50:14.909Z,30.17
2018-12-06T08:52:48.889Z,27.77
2018-12-06T08:55:17.786Z,29.47
2018-12-06T08:57:50.555Z,24.03
2018-12-06T09:00:21.529Z,23.67
2018-12-06T09:02:56.005Z,24.10
2018-12-06T09:05:28.823Z,22.80
2018-12-06T09:07:58.417Z,23.63
2018-12-06T09:10:26.937Z,23.40
2018-12-06T09:13:00.790Z,21.70
2018-12-06T09:15:30.157Z,27.87
2018-12-06T09:17:59.690Z,23.53
2018-12-06T09:20:28.334Z,23.60
2018-12-06T09:22:58.824Z,23.13
2018-12-06T09:25:30.071Z,19.07
2018-12-06T09:27:59.695Z,18.13
2018-12-06T09:30:28.919Z,19.00
2018-12-06T09:32:58.085Z,17.83
2018-12-06T09:35:27.186Z,17.27
2018-12-06T09:37:55.473Z,17.53
2018-12-06T09:40:24.149Z,16.13
2018-12-06T09:42:52.525Z,16.03
2018-12-06T09:45:21.518Z,15.70
2018-12-06T09:47:50.209Z,15.00
2018-12-06T09:50:19.167Z,14.07
2018-12-06T09:52:47.504Z,13.93
2018-12-06T09:55:16.134Z,14.40
2018-12-06T09:57:44.375Z,14.20
2018-12-06T10:00:15.322Z,13.60
2018-12-06T10:02:43.621Z,14.57
2018-12-06T10:05:11.933Z,14.97
2018-12-06T10:07:41.231Z,15.40
2018-12-06T10:10:09.729Z,14.43
2018-12-06T10:12:39.729Z,14.70
2018-12-06T10:15:08.076Z,14.43
2018-12-06T10:17:36.986Z,15.43
2018-12-06T10:20:07.698Z,15.97
2018-12-06T10:22:36.990Z,14.97
2018-12-06T10:25:06.543Z,16.00
2018-12-06T10:27:38.458Z,15.90
2018-12-06T10:30:08.158Z,15.43
2018-12-06T10:32:43.007Z,17.50
2018-12-06T10:35:17.131Z,17.33
2018-12-06T10:37:46.067Z,16.27
2018-12-06T10:40:14.745Z,17.73
2018-12-06T10:42:43.056Z,15.57
2018-12-06T10:45:11.997Z,18.10
2018-12-06T10:47:40.298Z,16.23
2018-12-06T10:50:14.894Z,16.83
2018-12-06T10:52:44.901Z,15.67
2018-12-06T10:55:13.220Z,17.47
2018-12-06T10:57:46.023Z,17.33
2018-12-06T11:00:20.049Z,17.03
2018-12-06T11:02:52.890Z,18.00
2018-12-06T11:05:25.445Z,21.73
2018-12-06T11:07:54.879Z,17.30
2018-12-06T11:10:23.656Z,17.33
2018-12-06T11:12:52.623Z,16.93
2018-12-06T11:15:22.903Z,17.90
2018-12-06T11:17:51.170Z,17.53
2018-12-06T11:20:19.485Z,18.00
2018-12-06T11:22:48.197Z,16.20
2018-12-06T11:25:17.528Z,16.13
2018-12-06T11:27:46.045Z,15.67
2018-12-06T11:30:16.053Z,15.53
2018-12-06T11:32:48.421Z,15.27
2018-12-06T11:35:17.681Z,14.47
2018-12-06T11:37:46.488Z,15.10
2018-12-06T11:40:15.617Z,14.37
2018-12-06T11:42:43.983Z,14.40
2018-12-06T11:45:13.449Z,14.47
2018-12-06T11:47:41.820Z,13.03
2018-12-06T11:50:10.812Z,12.90
2018-12-06T11:52:44.773Z,12.67
2018-12-06T11:55:13.005Z,11.50
2018-12-06T11:57:41.780Z,12.07
2018-12-06T12:00:11.619Z,12.50
2018-12-06T12:02:39.914Z,10.30
2018-12-06T12:05:11.333Z,11.57
2018-12-06T12:07:39.615Z,11.07
2018-12-06T12:10:07.954Z,10.13
2018-12-06T12:12:36.246Z,10.53
2018-12-06T12:15:05.017Z,9.33
2018-12-06T12:17:35.873Z,10.77
2018-12-06T12:20:08.633Z,9.93
2018-12-06T12:22:36.985Z,10.73
2018-12-06T12:25:09.977Z,10.93
2018-12-06T12:27:38.461Z,9.67
2018-12-06T12:30:07.661Z,10.80
2018-12-06T12:32:38.860Z,11.00
2018-12-06T12:35:11.337Z,10.77
2018-12-06T12:37:40.289Z,11.13
2018-12-06T12:40:10.862Z,10.73
2018-12-06T12:42:39.125Z,10.57
2018-12-06T12:45:08.003Z,12.47
2018-12-06T12:47:37.952Z,11.23
2018-12-06T12:50:07.976Z,11.50
2018-12-06T12:52:36.427Z,11.93
2018-12-06T12:55:05.353Z,12.30
2018-12-06T12:57:33.719Z,12.37
2018-12-06T13:00:02.051Z,12.17
2018-12-06T13:02:30.448Z,12.93
2018-12-06T13:04:58.769Z,12.87
2018-12-06T13:07:27.094Z,12.73
2018-12-06T13:09:55.365Z,13.27
2018-12-06T13:12:23.770Z,13.83
2018-12-06T13:14:52.047Z,12.93
2018-12-06T13:17:20.400Z,12.50
2018-12-06T13:19:50.308Z,13.50
2018-12-06T13:22:20.394Z,13.93
2018-12-06T13:24:48.794Z,14.03
2018-12-06T13:27:19.315Z,14.43
2018-12-06T13:29:47.758Z,14.80
2018-12-06T13:32:19.846Z,13.90
2018-12-06T13:34:48.440Z,14.80
2018-12-06T13:37:17.480Z,14.47
2018-12-06T13:39:45.805Z,13.67
2018-12-06T13:42:14.071Z,15.20
2018-12-06T13:44:42.289Z,14.67
2018-12-06T13:47:15.682Z,18.27
2018-12-06T13:49:45.875Z,15.43
2018-12-06T13:52:14.330Z,16.47
2018-12-06T13:54:48.118Z,15.73
2018-12-06T13:57:19.660Z,15.80
2018-12-06T13:59:47.331Z,14.60
2018-12-06T14:02:31.374Z,14.33
2018-12-06T14:05:00.655Z,14.70
2018-12-06T14:07:28.986Z,15.07
2018-12-06T14:09:57.333Z,15.70
2018-12-06T14:12:25.650Z,15.90
2018-12-06T14:14:57.649Z,14.63
2018-12-06T14:17:26.517Z,14.17
2018-12-06T14:19:54.822Z,14.80
2018-12-06T14:22:23.077Z,15.00
2018-12-06T14:24:51.284Z,14.30
2018-12-06T14:27:19.614Z,14.13
2018-12-06T14:29:48.485Z,15.57
2018-12-06T14:32:16.721Z,14.50
2018-12-06T14:34:45.090Z,15.13
2018-12-06T14:37:13.380Z,14.43
2018-12-06T14:39:41.598Z,15.73
2018-12-06T14:42:09.871Z,16.03
2018-12-06T14:44:38.222Z,14.93
2018-12-06T14:47:06.654Z,15.30
2018-12-06T14:49:39.899Z,15.67
2018-12-06T14:52:08.214Z,13.57
2018-12-06T14:54:36.510Z,13.77
2018-12-06T14:57:05.009Z,14.17
2018-12-06T14:59:33.306Z,14.10
2018-12-06T15:02:01.554Z,14.87
2018-12-06T15:04:29.928Z,15.00
2018-12-06T15:06:58.177Z,16.27
2018-12-06T15:09:26.517Z,16.27
2018-12-06T15:11:54.744Z,21.27
2018-12-06T15:14:31.778Z,18.47
2018-12-06T15:17:00.161Z,22.47
2018-12-06T15:19:28.657Z,16.37
2018-12-06T15:21:57.285Z,15.13
2018-12-06T15:24:25.513Z,17.73
2018-12-06T15:26:53.802Z,19.93
2018-12-06T15:29:22.692Z,15.37
2018-12-06T15:31:52.573Z,15.57
2018-12-06T15:34:24.837Z,14.03
2018-12-06T15:36:53.072Z,15.03
2018-12-06T15:39:22.237Z,16.30
2018-12-06T15:41:51.414Z,16.40
2018-12-06T15:44:19.714Z,16.77
2018-12-06T15:46:48.889Z,16.70
2018-12-06T15:49:17.892Z,16.20
2018-12-06T15:51:46.085Z,16.10
2018-12-06T15:54:14.418Z,17.90
2018-12-06T15:56:43.112Z,16.03
2018-12-06T15:59:11.383Z,18.47
2018-12-06T16:01:39.787Z,17.20
2018-12-06T16:04:08.206Z,15.30
2018-12-06T16:06:36.536Z,15.87
2018-12-06T16:09:07.266Z,16.40
2018-12-06T16:11:35.508Z,15.70
2018-12-06T16:14:03.864Z,15.47
2018-12-06T16:16:39.557Z,16.67
2018-12-06T16:19:07.793Z,16.37
2018-12-06T16:21:36.066Z,14.67
2018-12-06T16:24:04.386Z,14.63
2018-12-06T16:26:33.418Z,15.80
2018-12-06T16:29:01.678Z,17.37
2018-12-06T16:31:31.128Z,15.50
2018-12-06T16:34:03.170Z,15.13
2018-12-06T16:36:32.306Z,15.93
2018-12-06T16:39:00.507Z,13.80
2018-12-06T16:41:28.770Z,15.03
2018-12-06T16:43:58.010Z,13.60
2018-12-06T16:46:26.237Z,12.87
2018-12-06T16:48:55.441Z,13.83
2018-12-06T16:51:24.878Z,14.07
2018-12-06T16:53:57.210Z,12.67
2018-12-06T16:56:26.448Z,13.60
2018-12-06T16:58:54.686Z,11.73
2018-12-06T17:01:22.969Z,22.43
2018-12-06T17:03:52.773Z,14.87
2018-12-06T17:06:24.845Z,14.90
2018-12-06T17:08:53.170Z,13.30
2018-12-06T17:11:21.513Z,15.00
2018-12-06T17:13:49.967Z,14.53
2018-12-06T17:16:18.811Z,13.17
2018-12-06T17:18:47.489Z,20.70
2018-12-06T17:21:16.311Z,12.17
2018-12-06T17:23:45.861Z,14.13
2018-12-06T17:26:18.108Z,13.13
2018-12-06T17:28:46.386Z,13.47
2018-12-06T17:31:15.362Z,12.83
2018-12-06T17:33:43.862Z,12.43
2018-12-06T17:36:16.548Z,13.07
2018-12-06T17:38:44.958Z,13.03
2018-12-06T17:41:13.222Z,12.97
2018-12-06T17:43:41.510Z,17.03
2018-12-06T17:46:09.822Z,12.40
2018-12-06T17:48:38.095Z,12.27
2018-12-06T17:51:06.322Z,11.77
2018-12-06T17:53:34.615Z,12.23
2018-12-06T17:56:02.937Z,12.40
2018-12-06T17:58:31.468Z,11.03
2018-12-06T18:00:59.702Z,11.33
2018-12-06T18:03:28.043Z,13.90
2018-12-06T18:05:56.347Z,11.07
2018-12-06T18:08:24.629Z,11.37
2018-12-06T18:10:52.942Z,11.90
2018-12-06T18:13:21.714Z,10.60
2018-12-06T18:15:50.098Z,11.10
2018-12-06T18:18:18.883Z,9.93
2018-12-06T18:20:47.194Z,11.00
2018-12-06T18:23:15.571Z,11.37
2018-12-06T18:25:43.826Z,11.47
2018-12-06T18:28:12.166Z,11.57
2018-12-06T18:30:40.485Z,11.03
2018-12-06T18:33:09.687Z,10.20
2018-12-06T18:35:38.943Z,9.70
2018-12-06T18:38:07.247Z,11.23
2018-12-06T18:40:35.611Z,11.13
2018-12-06T18:43:04.292Z,9.97
2018-12-06T18:45:33.753Z,9.50
2018-12-06T18:48:03.014Z,9.27
2018-12-06T18:50:32.074Z,11.17
2018-12-06T18:53:00.436Z,9.40
2018-12-06T18:55:29.597Z,9.33
2018-12-06T18:57:58.085Z,8.90
2018-12-06T19:00:27.392Z,8.57
2018-12-06T19:02:55.678Z,8.20
2018-12-06T19:05:25.141Z,7.73
2018-12-06T19:07:53.686Z,7.77
2018-12-06T19:10:22.021Z,7.97
2018-12-06T19:12:50.608Z,8.73
2018-12-06T19:15:19.391Z,9.97
2018-12-06T19:17:47.722Z,9.33
2018-12-06T19:20:16.635Z,10.27
2018-12-06T19:22:45.328Z,9.83
2018-12-06T19:25:13.666Z,8.30
2018-12-06T19:27:41.999Z,8.70
2018-12-06T19:30:10.578Z,9.97
2018-12-06T19:32:39.734Z,9.87
2018-12-06T19:35:09.761Z,8.90
2018-12-06T19:37:38.090Z,8.23
2018-12-06T19:40:07.578Z,8.20
2018-12-06T19:42:38.850Z,9.03
2018-12-06T19:45:12.081Z,8.47
2018-12-06T19:47:41.129Z,8.10
2018-12-06T19:50:10.088Z,7.53
2018-12-06T19:52:40.072Z,7.73
2018-12-06T19:55:08.410Z,7.23
2018-12-06T19:57:36.653Z,7.03
2018-12-06T20:00:06.433Z,7.83
2018-12-06T20:02:34.750Z,7.73
2018-12-06T20:05:07.668Z,7.10
2018-12-06T20:07:36.488Z,7.63
2018-12-06T20:10:05.999Z,9.63
2018-12-06T20:12:35.218Z,9.00
2018-12-06T20:15:03.480Z,7.00
2018-12-06T20:17:31.834Z,7.30
2018-12-06T20:20:00.426Z,7.40
2018-12-06T20:22:29.150Z,6.83
2018-12-06T20:24:57.611Z,6.80
2018-12-06T20:27:26.459Z,6.80
2018-12-06T20:29:55.136Z,7.50
2018-12-06T20:32:23.907Z,7.43
2018-12-06T20:34:52.226Z,6.80
2018-12-06T20:37:20.518Z,8.17
2018-12-06T20:39:50.862Z,7.13
2018-12-06T20:42:19.163Z,7.03
2018-12-06T20:44:47.414Z,6.60
2018-12-06T20:47:19.874Z,6.50
2018-12-06T20:49:48.323Z,6.67
2018-12-06T20:52:17.145Z,6.13
2018-12-06T20:54:45.730Z,6.60
2018-12-06T20:57:14.921Z,6.70
2018-12-06T20:59:44.161Z,6.90
2018-12-06T21:02:12.446Z,5.70
2018-12-06T21:04:40.652Z,6.40
2018-12-06T21:07:08.967Z,5.87
2018-12-06T21:09:37.299Z,6.40
2018-12-06T21:12:05.564Z,6.43
2018-12-06T21:14:33.885Z,5.63
2018-12-06T21:17:02.203Z,6.20
2018-12-06T21:19:30.562Z,6.50
2018-12-06T21:21:58.923Z,6.40
2018-12-06T21:24:27.114Z,5.87
2018-12-06T21:26:55.339Z,5.77
2018-12-06T21:29:25.775Z,6.17
2018-12-06T21:31:54.237Z,5.80
2018-12-06T21:34:22.600Z,5.93
2018-12-06T21:36:51.005Z,6.47
2018-12-06T21:39:20.366Z,5.73
2018-12-06T21:41:48.697Z,6.47
2018-12-06T21:44:16.997Z,5.30
2018-12-06T21:46:45.282Z,5.73
2018-12-06T21:49:14.326Z,5.93
2018-12-06T21:51:42.630Z,5.83
2018-12-06T21:54:11.550Z,5.47
2018-12-06T21:56:40.797Z,7.10
2018-12-06T21:59:09.692Z,6.27
2018-12-06T22:01:37.998Z,6.17
2018-12-06T22:04:06.981Z,6.63
2018-12-06T22:06:35.573Z,7.30
2018-12-06T22:09:05.286Z,7.10
2018-12-06T22:11:35.180Z,6.57
2018-12-06T22:14:04.338Z,6.90
2018-12-06T22:16:32.743Z,7.63
2018-12-06T22:19:01.779Z,6.50
2018-12-06T22:21:30.262Z,6.07
2018-12-06T22:23:58.525Z,5.67
2018-12-06T22:26:26.893Z,7.27
2018-12-06T22:28:56.503Z,5.40
2018-12-06T22:31:24.906Z,6.43
2018-12-06T22:33:53.185Z,5.40
2018-12-06T22:36:21.507Z,5.37
2018-12-06T22:38:49.968Z,5.90
2018-12-06T22:41:18.189Z,6.70
2018-12-06T22:43:46.497Z,6.23
2018-12-06T22:46:14.774Z,5.70
2018-12-06T22:48:43.050Z,5.87
2018-12-06T22:51:11.281Z,5.23
2018-12-06T22:53:39.521Z,5.53
2018-12-06T22:56:07.783Z,5.23
2018-12-06T22:58:36.033Z,5.53
2018-12-06T23:01:04.672Z,5.53
2018-12-06T23:03:32.875Z,5.97
2018-12-06T23:06:01.165Z,5.77
2018-12-06T23:08:29.481Z,6.17
2018-12-06T23:10:57.708Z,5.13
2018-12-06T23:13:25.956Z,6.10
2018-12-06T23:15:55.062Z,5.37
2018-12-06T23:18:23.306Z,5.40
2018-12-06T23:20:51.554Z,6.70
2018-12-06T23:23:20.542Z,6.50
2018-12-06T23:25:49.776Z,5.40
2018-12-06T23:28:18.063Z,6.63
2018-12-06T23:30:46.721Z,6.07
2018-12-06T23:33:15.031Z,5.93
2018-12-06T23:35:43.316Z,6.20
2018-12-06T23:38:11.675Z,6.13
2018-12-06T23:40:39.914Z,5.50
2018-12-06T23:43:08.276Z,5.57
2018-12-06T23:45:37.485Z,6.17
2018-12-06T23:48:05.886Z,5.33
2018-12-06T23:50:34.161Z,5.57
2018-12-06T23:53:02.367Z,5.00
2018-12-06T23:55:30.662Z,5.53
2018-12-06T23:57:58.970Z,5.57
